Time;durP1;ratioP1;P1;durP2;ratioP2;P2;SDS_P1;SDS_P2;PMS_P1;PMS_P2;Temp;Humidity;BMP_temperature;BMP_pressure;BME280_temperature;BME280_humidity;BME280_pressure;Samples;Min_cycle;Max_cycle;Signal;HPM_P1;HPM_P2
2023/07/25 00:00:09;;;;;;;6.85;2.50;;;21.60;93.50;;;;;;5036081;28;20049;-59
2023/07/25 00:02:35;;;;;;;13.05;3.10;;;21.70;93.40;;;;;;5036244;28;20046;-60
2023/07/25 00:05:02;;;;;;;7.68;2.67;;;21.80;93.30;;;;;;5036360;28;20176;-59
2023/07/25 00:07:28;;;;;;;6.10;2.75;;;21.70;93.30;;;;;;5044544;28;20077;-71
2023/07/25 00:09:54;;;;;;;7.53;2.55;;;21.70;93.40;;;;;;5050288;28;20081;-71
2023/07/25 00:12:19;;;;;;;7.95;2.60;;;21.50;93.30;;;;;;5035627;28;20045;-58
2023/07/25 00:14:45;;;;;;;7.05;2.55;;;21.60;93.30;;;;;;5043305;28;20041;-61
2023/07/25 00:17:11;;;;;;;7.68;3.00;;;21.70;93.30;;;;;;5052945;28;20117;-71
2023/07/25 00:19:36;;;;;;;7.63;2.70;;;21.70;93.30;;;;;;5056013;28;20115;-62
2023/07/25 00:22:03;;;;;;;5.28;2.42;;;;;;;;;;5053967;28;20052;-67
2023/07/25 00:24:28;;;;;;;5.40;2.40;;;21.60;93.20;;;;;;5054152;28;20394;-65
2023/07/25 00:26:54;;;;;;;7.45;2.80;;;21.60;93.20;;;;;;5040379;28;20033;-63
2023/07/25 00:29:20;;;;;;;10.15;3.15;;;21.40;93.10;;;;;;5036963;28;20164;-63
2023/07/25 00:31:45;;;;;;;7.03;2.83;;;21.70;93.20;;;;;;5045214;28;20116;-62
2023/07/25 00:34:11;;;;;;;7.57;2.90;;;21.80;93.20;;;;;;5055728;28;20039;-63
2023/07/25 00:36:37;;;;;;;7.25;3.00;;;21.70;93.20;;;;;;5052394;28;20176;-68
2023/07/25 00:39:03;;;;;;;7.55;2.30;;;21.30;93.40;;;;;;5040455;28;20041;-62
2023/07/25 00:41:28;;;;;;;6.25;2.75;;;21.60;93.10;;;;;;5049456;28;20116;-68
2023/07/25 00:43:54;;;;;;;6.90;2.60;;;21.50;93.10;;;;;;5054408;28;20041;-62
2023/07/25 00:46:20;;;;;;;8.07;2.70;;;21.50;93.10;;;;;;5044267;28;20038;-70
2023/07/25 00:48:45;;;;;;;7.72;2.70;;;21.70;93.20;;;;;;5033710;28;20045;-59
2023/07/25 00:51:11;;;;;;;8.55;2.72;;;21.70;93.10;;;;;;5035486;28;20049;-69
2023/07/25 00:53:37;;;;;;;7.38;2.42;;;21.40;93.00;;;;;;5033654;28;20475;-62
2023/07/25 00:56:04;;;;;;;8.45;2.88;;;21.70;93.10;;;;;;5048415;28;20037;-61
2023/07/25 00:58:29;;;;;;;5.60;2.30;;;21.70;93.10;;;;;;5034009;28;20095;-72
2023/07/25 01:01:05;;;;;;;6.80;2.40;;;21.50;93.00;;;;;;5035241;28;20072;-59
2023/07/25 01:03:34;;;;;;;8.55;2.78;;;21.50;93.00;;;;;;5039443;28;20052;-63
2023/07/25 01:06:05;;;;;;;10.70;2.65;;;21.60;93.00;;;;;;5042146;28;20047;-59
2023/07/25 01:08:30;;;;;;;7.25;2.47;;;21.60;93.00;;;;;;5052628;28;20032;-74
2023/07/25 01:10:56;;;;;;;7.75;2.40;;;21.40;92.90;;;;;;5053201;28;20049;-67
2023/07/25 01:13:22;;;;;;;10.45;3.00;;;21.60;92.90;;;;;;5055027;28;20045;-71
2023/07/25 01:15:51;;;;;;;10.30;2.67;;;21.40;92.90;;;;;;5054680;28;20045;-60
2023/07/25 01:18:17;;;;;;;5.93;2.30;;;21.40;92.90;;;;;;5048078;28;20099;-61
2023/07/25 01:20:43;;;;;;;6.15;2.60;;;21.60;92.90;;;;;;5052725;28;20487;-60
2023/07/25 01:23:12;;;;;;;8.10;2.78;;;21.40;92.80;;;;;;5035127;28;20064;-59
2023/07/25 01:25:37;;;;;;;5.68;2.08;;;21.50;92.90;;;;;;5049995;28;20450;-61
2023/07/25 01:28:04;;;;;;;6.80;2.33;;;;;;;;;;5034618;28;20085;-61
2023/07/25 01:30:30;;;;;;;10.25;2.70;;;21.30;92.90;;;;;;5046629;28;20049;-70
2023/07/25 01:32:56;;;;;;;7.88;2.10;;;21.50;92.90;;;;;;5032953;28;20594;-73
2023/07/25 01:35:22;;;;;;;5.75;2.05;;;21.50;92.80;;;;;;5034501;28;20128;-61
2023/07/25 01:37:48;;;;;;;8.35;2.65;;;21.50;92.90;;;;;;5039834;28;20110;-60
2023/07/25 01:40:14;;;;;;;6.70;2.30;;;21.50;92.80;;;;;;5034999;28;20037;-61
2023/07/25 01:42:39;;;;;;;8.00;2.75;;;21.40;92.80;;;;;;5036001;28;20060;-64
2023/07/25 01:45:06;;;;;;;7.88;2.30;;;21.40;92.80;;;;;;5054378;28;20048;-68
2023/07/25 01:47:31;;;;;;;8.98;2.70;;;21.40;92.80;;;;;;5051169;28;20051;-71
2023/07/25 01:49:57;;;;;;;9.32;2.63;;;21.40;92.80;;;;;;5037608;28;20547;-58
2023/07/25 01:52:23;;;;;;;7.53;2.58;;;21.40;92.80;;;;;;5034332;28;20037;-65
2023/07/25 01:54:49;;;;;;;7.05;2.55;;;21.40;92.80;;;;;;5033674;28;20053;-71
2023/07/25 01:57:15;;;;;;;7.60;2.47;;;;;;;;;;5044173;28;20421;-62
2023/07/25 01:59:41;;;;;;;8.63;2.30;;;21.40;92.70;;;;;;5041896;28;20049;-71
2023/07/25 02:02:07;;;;;;;6.82;2.20;;;21.40;92.60;;;;;;5034019;28;20183;-59
2023/07/25 02:04:33;;;;;;;10.75;2.40;;;21.30;92.70;;;;;;5048559;28;20044;-69
2023/07/25 02:06:58;;;;;;;6.20;2.30;;;21.30;92.70;;;;;;5044448;28;20431;-66
2023/07/25 02:09:24;;;;;;;6.60;2.90;;;21.50;92.70;;;;;;5040910;28;20040;-60
2023/07/25 02:11:50;;;;;;;12.77;2.60;;;21.30;92.70;;;;;;5052803;28;20053;-69
2023/07/25 02:14:15;;;;;;;8.43;2.47;;;21.40;92.70;;;;;;5082900;28;20045;-59
2023/07/25 02:16:41;;;;;;;9.00;2.45;;;21.30;91.40;;;;;;5050765;28;20045;-59
2023/07/25 02:19:07;;;;;;;8.93;2.80;;;21.50;92.70;;;;;;5033072;28;20056;-62
2023/07/25 02:21:33;;;;;;;9.85;2.65;;;21.40;92.70;;;;;;5033760;28;20037;-72
2023/07/25 02:23:59;;;;;;;8.23;2.38;;;21.30;92.60;;;;;;5044248;28;20061;-65
2023/07/25 02:26:25;;;;;;;10.05;2.65;;;21.30;92.60;;;;;;5052779;28;20199;-59
2023/07/25 02:28:50;;;;;;;6.03;2.05;;;21.30;92.60;;;;;;5045548;28;20124;-62
2023/07/25 02:31:16;;;;;;;11.65;2.53;;;21.30;92.60;;;;;;5046002;28;20045;-65
2023/07/25 02:33:42;;;;;;;5.60;2.40;;;21.20;92.60;;;;;;5053488;28;20036;-60
2023/07/25 02:36:08;;;;;;;8.38;2.55;;;21.40;92.60;;;;;;5052224;28;20056;-66
2023/07/25 02:38:33;;;;;;;8.27;2.80;;;21.30;92.50;;;;;;5051589;28;20040;-72
2023/07/25 02:40:59;;;;;;;9.48;2.40;;;21.20;92.60;;;;;;5046203;28;20099;-64
2023/07/25 02:43:25;;;;;;;7.35;2.50;;;;;;;;;;5032923;28;20391;-60
2023/07/25 02:45:51;;;;;;;9.43;2.60;;;21.20;92.60;;;;;;5053300;28;20048;-60
2023/07/25 02:48:17;;;;;;;6.03;2.33;;;21.30;92.60;;;;;;5041810;28;20045;-61
2023/07/25 02:50:43;;;;;;;8.18;2.25;;;21.30;92.60;;;;;;5046116;28;20060;-60
2023/07/25 02:53:09;;;;;;;7.88;2.28;;;21.40;91.90;;;;;;5032947;28;20049;-62
2023/07/25 02:55:34;;;;;;;9.07;2.15;;;21.10;92.60;;;;;;5050474;28;20048;-60
2023/07/25 02:58:00;;;;;;;6.13;2.13;;;;;;;;;;5043110;28;20044;-61
2023/07/25 03:00:26;;;;;;;8.85;2.35;;;21.30;92.60;;;;;;5051685;28;20037;-67
2023/07/25 03:02:52;;;;;;;11.45;2.67;;;;;;;;;;5045481;28;20106;-68
2023/07/25 03:05:18;;;;;;;6.20;1.80;;;21.40;92.60;;;;;;5033857;28;20071;-67
2023/07/25 03:07:44;;;;;;;7.72;2.50;;;;;;;;;;5046289;28;20040;-61
2023/07/25 03:10:10;;;;;;;8.98;2.78;;;;;;;;;;5044336;28;20102;-68
2023/07/25 03:12:36;;;;;;;6.70;2.72;;;21.30;92.60;;;;;;5048761;28;20045;-73
2023/07/25 03:15:02;;;;;;;9.85;2.58;;;21.20;92.60;;;;;;5052486;28;20463;-59
2023/07/25 03:17:29;;;;;;;9.13;2.15;;;21.30;92.60;;;;;;5052043;28;20049;-65
2023/07/25 03:19:55;;;;;;;7.65;2.00;;;;;;;;;;5050350;28;20040;-69
2023/07/25 03:22:21;;;;;;;8.80;2.40;;;21.40;92.60;;;;;;5044072;28;20441;-71
2023/07/25 03:24:47;;;;;;;7.50;2.45;;;21.30;92.60;;;;;;5052425;28;20060;-63
2023/07/25 03:27:13;;;;;;;6.65;1.90;;;21.20;92.60;;;;;;5052392;28;20048;-65
2023/07/25 03:29:38;;;;;;;7.70;2.10;;;21.40;92.60;;;;;;5052400;28;20049;-63
2023/07/25 03:32:05;;;;;;;7.07;2.42;;;;;;;;;;5044694;28;20041;-60
2023/07/25 03:34:30;;;;;;;7.38;2.33;;;21.30;92.60;;;;;;5047724;28;20090;-62
2023/07/25 03:36:56;;;;;;;5.53;2.15;;;21.50;92.60;;;;;;5032488;28;20041;-62
2023/07/25 03:39:22;;;;;;;7.30;2.45;;;21.30;92.60;;;;;;5033141;28;20073;-64
2023/07/25 03:41:47;;;;;;;7.28;2.20;;;21.10;92.50;;;;;;5039020;28;20501;-72
2023/07/25 03:44:20;;;;;;;6.20;2.00;;;21.40;92.60;;;;;;5042480;28;20118;-59
2023/07/25 03:46:46;;;;;;;5.95;2.63;;;21.40;92.60;;;;;;5052286;28;20578;-65
2023/07/25 03:49:12;;;;;;;7.72;2.20;;;21.40;92.60;;;;;;5052228;28;20082;-59
2023/07/25 03:51:38;;;;;;;5.93;2.22;;;21.30;92.50;;;;;;5039935;28;20041;-60
2023/07/25 03:54:06;;;;;;;6.03;1.98;;;21.50;92.60;;;;;;5045513;28;20056;-69
2023/07/25 03:56:32;;;;;;;8.82;2.13;;;21.40;92.60;;;;;;5031804;28;20475;-64
2023/07/25 03:59:01;;;;;;;6.43;2.30;;;21.30;92.60;;;;;;5032241;28;20045;-62
2023/07/25 04:01:27;;;;;;;8.25;2.15;;;21.30;92.50;;;;;;5036976;28;20050;-65
2023/07/25 04:03:52;;;;;;;6.35;2.53;;;21.50;92.60;;;;;;5031702;28;20073;-59
2023/07/25 04:06:18;;;;;;;6.63;2.00;;;21.40;92.50;;;;;;5032165;28;20041;-60
2023/07/25 04:08:44;;;;;;;6.43;2.00;;;21.30;92.50;;;;;;5031197;28;20064;-59
2023/07/25 04:11:12;;;;;;;8.95;2.63;;;21.20;92.50;;;;;;5041500;28;20081;-65
2023/07/25 04:13:38;;;;;;;6.95;2.25;;;21.40;92.50;;;;;;5042090;28;20450;-64
2023/07/25 04:16:04;;;;;;;7.68;2.40;;;21.40;92.60;;;;;;5051874;28;20089;-59
2023/07/25 04:18:29;;;;;;;7.47;1.92;;;21.40;92.60;;;;;;5035142;28;20041;-64
2023/07/25 04:20:55;;;;;;;6.60;1.95;;;21.30;92.50;;;;;;5033468;28;20037;-69
2023/07/25 04:23:22;;;;;;;8.75;2.03;;;;;;;;;;5039276;28;20053;-63
2023/07/25 04:25:48;;;;;;;6.60;2.15;;;21.50;92.60;;;;;;5036944;28;20103;-61
2023/07/25 04:28:14;;;;;;;5.32;1.92;;;21.40;92.60;;;;;;5040146;28;20072;-59
2023/07/25 04:30:40;;;;;;;6.68;2.08;;;21.40;92.60;;;;;;5037705;28;20471;-64
2023/07/25 04:33:06;;;;;;;5.40;2.20;;;21.40;92.60;;;;;;5055771;28;20040;-70
2023/07/25 04:35:32;;;;;;;6.82;2.03;;;21.40;92.60;;;;;;5050762;28;20049;-62
2023/07/25 04:37:57;;;;;;;7.00;2.10;;;21.20;92.50;;;;;;5050816;28;20041;-69
2023/07/25 04:40:23;;;;;;;6.57;1.85;;;21.30;92.60;;;;;;5053715;28;20045;-62
2023/07/25 04:42:49;;;;;;;7.72;2.10;;;21.40;92.60;;;;;;5053560;28;20045;-62
2023/07/25 04:45:15;;;;;;;4.50;1.85;;;;;;;;;;5041292;28;20073;-60
2023/07/25 04:47:41;;;;;;;4.72;2.00;;;21.30;92.60;;;;;;5039841;28;20120;-62
2023/07/25 04:50:07;;;;;;;6.88;2.03;;;21.30;92.60;;;;;;5054538;28;20120;-66
2023/07/25 04:52:32;;;;;;;6.55;1.90;;;21.20;92.60;;;;;;5054113;28;20441;-65
2023/07/25 04:54:58;;;;;;;8.35;1.90;;;;;;;;;;5044636;28;20049;-65
2023/07/25 04:57:25;;;;;;;3.83;1.50;;;21.30;92.60;;;;;;5035328;28;20037;-59
2023/07/25 04:59:50;;;;;;;8.20;2.00;;;21.50;92.70;;;;;;5037639;28;20041;-68
2023/07/25 05:02:18;;;;;;;5.43;1.90;;;21.40;91.50;;;;;;5052255;28;20056;-61
2023/07/25 05:04:44;;;;;;;4.57;1.90;;;21.30;91.30;;;;;;5034908;28;20056;-60
2023/07/25 05:07:10;;;;;;;8.32;2.15;;;21.50;92.60;;;;;;5045396;28;20041;-59
2023/07/25 05:09:35;;;;;;;7.63;1.98;;;21.40;92.70;;;;;;5055094;28;20170;-61
2023/07/25 05:12:04;;;;;;;5.35;1.83;;;21.60;92.70;;;;;;5085600;28;20048;-59
2023/07/25 05:14:30;;;;;;;5.88;1.80;;;21.60;91.90;;;;;;5038472;28;20522;-61
2023/07/25 05:16:56;;;;;;;3.60;1.88;;;21.40;92.60;;;;;;5050305;28;20047;-60
2023/07/25 05:19:22;;;;;;;4.20;2.03;;;21.50;92.60;;;;;;5051406;28;20041;-61
2023/07/25 05:21:48;;;;;;;6.57;2.30;;;;;;;;;;5034626;28;20423;-68
2023/07/25 05:24:14;;;;;;;4.57;1.80;;;21.30;92.50;;;;;;5034149;28;20053;-68
2023/07/25 05:26:41;;;;;;;4.38;1.88;;;21.40;91.60;;;;;;5040499;28;20123;-64
2023/07/25 05:29:07;;;;;;;4.90;2.15;;;21.40;92.60;;;;;;5041897;28;20045;-60
2023/07/25 05:31:33;;;;;;;6.10;1.80;;;21.60;92.80;;;;;;5034695;28;20125;-63
2023/07/25 05:33:59;;;;;;;4.90;1.70;;;21.50;92.60;;;;;;5034382;28;20052;-69
2023/07/25 05:36:24;;;;;;;5.60;1.70;;;21.60;92.60;;;;;;5044183;28;20033;-63
2023/07/25 05:38:50;;;;;;;4.88;1.75;;;21.80;92.70;;;;;;5048006;28;20574;-66
2023/07/25 05:41:16;;;;;;;4.57;1.77;;;21.80;92.50;;;;;;5054486;28;20047;-61
2023/07/25 05:43:42;;;;;;;5.75;1.83;;;21.90;92.40;;;;;;5054067;28;20055;-64
2023/07/25 05:46:08;;;;;;;6.85;2.00;;;22.20;92.20;;;;;;5052320;28;20102;-59
2023/07/25 05:48:34;;;;;;;5.72;1.90;;;22.20;92.10;;;;;;5051701;28;20053;-60
2023/07/25 05:51:00;;;;;;;5.07;1.83;;;22.30;92.20;;;;;;5041442;28;20447;-60
2023/07/25 05:53:25;;;;;;;6.72;1.90;;;22.30;91.80;;;;;;5036868;28;20052;-62
2023/07/25 05:55:51;;;;;;;6.07;1.90;;;22.60;90.50;;;;;;5035155;28;20090;-65
2023/07/25 05:58:17;;;;;;;5.03;1.70;;;22.60;90.60;;;;;;5052769;28;20120;-61
2023/07/25 06:00:44;;;;;;;5.97;1.95;;;23.00;90.20;;;;;;5043676;28;20163;-62
2023/07/25 06:03:14;;;;;;;4.82;2.13;;;23.00;91.40;;;;;;5033982;28;20041;-69
2023/07/25 06:05:39;;;;;;;6.03;1.90;;;23.00;90.40;;;;;;5048908;28;20048;-63
2023/07/25 06:08:06;;;;;;;5.97;2.05;;;23.20;91.20;;;;;;5051947;28;20041;-66
2023/07/25 06:10:32;;;;;;;5.07;1.90;;;;;;;;;;5042200;28;20061;-62
2023/07/25 06:12:58;;;;;;;5.15;1.70;;;23.20;88.50;;;;;;5053078;28;20060;-60
2023/07/25 06:15:24;;;;;;;6.15;2.00;;;23.40;90.90;;;;;;5035588;28;20495;-60
2023/07/25 06:17:50;;;;;;;6.05;1.92;;;23.40;89.80;;;;;;5049361;28;20044;-62
2023/07/25 06:20:15;;;;;;;4.85;1.92;;;23.50;89.50;;;;;;5046233;28;20120;-64
2023/07/25 06:22:41;;;;;;;5.47;2.17;;;23.50;90.50;;;;;;5033331;28;20049;-62
2023/07/25 06:25:07;;;;;;;5.40;2.00;;;23.60;90.60;;;;;;5033168;28;20053;-64
2023/07/25 06:27:33;;;;;;;5.38;2.15;;;23.70;88.80;;;;;;5040200;28;20128;-59
2023/07/25 06:30:00;;;;;;;4.18;1.80;;;23.70;90.30;;;;;;5033456;28;20120;-69
2023/07/25 06:32:26;;;;;;;6.10;1.98;;;23.80;90.10;;;;;;5032952;28;20038;-59
2023/07/25 06:34:52;;;;;;;7.20;2.22;;;23.90;90.30;;;;;;5045353;28;20128;-72
2023/07/25 06:37:18;;;;;;;6.22;2.05;;;24.10;88.00;;;;;;5043039;28;20045;-68
2023/07/25 06:39:43;;;;;;;5.53;2.25;;;24.00;87.70;;;;;;5033341;28;20049;-73
2023/07/25 06:42:09;;;;;;;4.90;1.90;;;24.30;87.70;;;;;;5044639;28;20518;-64
2023/07/25 06:44:35;;;;;;;6.43;2.00;;;24.10;87.30;;;;;;5033631;28;20083;-65
2023/07/25 06:47:01;;;;;;;5.88;2.47;;;24.00;87.10;;;;;;5033032;28;20034;-68
2023/07/25 06:49:26;;;;;;;5.03;1.85;;;24.20;87.10;;;;;;5032959;28;20050;-67
2023/07/25 06:51:55;;;;;;;7.30;2.17;;;24.10;86.90;;;;;;5034962;28;20042;-63
2023/07/25 06:54:21;;;;;;;4.97;1.90;;;23.90;86.70;;;;;;5038084;28;20096;-63
2023/07/25 06:56:47;;;;;;;5.20;1.75;;;24.20;86.70;;;;;;5032747;28;20045;-60
2023/07/25 06:59:13;;;;;;;5.93;1.92;;;24.30;86.30;;;;;;5052288;28;20590;-65
2023/07/25 07:01:38;;;;;;;5.63;1.83;;;24.30;86.20;;;;;;5040982;28;20072;-73
2023/07/25 07:04:04;;;;;;;5.95;2.00;;;24.60;86.10;;;;;;5033818;28;20134;-68
2023/07/25 07:06:30;;;;;;;4.95;1.98;;;24.40;85.90;;;;;;5039311;28;20494;-69
2023/07/25 07:08:56;;;;;;;3.78;1.75;;;24.50;85.60;;;;;;5051818;28;20448;-70
2023/07/25 07:11:21;;;;;;;5.95;1.67;;;24.50;85.50;;;;;;5045892;28;20419;-70
2023/07/25 07:13:47;;;;;;;6.70;1.90;;;24.60;85.30;;;;;;5036613;28;20395;-68
2023/07/25 07:16:14;;;;;;;5.97;2.15;;;24.70;84.90;;;;;;5038012;28;20107;-65
2023/07/25 07:18:39;;;;;;;5.68;1.70;;;24.50;84.80;;;;;;5038627;28;20083;-72
2023/07/25 07:21:05;;;;;;;6.43;1.90;;;24.70;85.50;;;;;;5034851;28;20073;-60
2023/07/25 07:23:31;;;;;;;5.82;2.10;;;24.70;84.70;;;;;;5051270;28;20077;-71
2023/07/25 07:25:57;;;;;;;5.95;2.42;;;24.70;84.40;;;;;;5059417;28;20051;-66
2023/07/25 07:28:22;;;;;;;7.75;1.98;;;24.80;84.20;;;;;;5064021;28;20051;-73
2023/07/25 07:30:51;;;;;;;4.90;1.98;;;24.70;84.00;;;;;;5057214;28;20397;-68
2023/07/25 07:33:20;;;;;;;5.47;2.20;;;24.90;84.10;;;;;;5059301;28;20081;-69
2023/07/25 07:35:46;;;;;;;6.97;1.77;;;24.90;84.00;;;;;;5045025;28;20487;-73
2023/07/25 07:38:12;;;;;;;4.75;2.10;;;24.80;83.90;;;;;;5043214;28;20096;-65
2023/07/25 07:40:38;;;;;;;5.97;2.00;;;24.90;85.80;;;;;;5035547;28;20052;-67
2023/07/25 07:43:03;;;;;;;7.63;1.95;;;24.80;83.70;;;;;;5052498;28;20060;-59
2023/07/25 07:45:30;;;;;;;4.57;1.88;;;24.90;85.70;;;;;;5051840;28;20388;-62
2023/07/25 07:47:56;;;;;;;6.10;2.17;;;24.80;83.20;;;;;;5046913;28;20075;-61
2023/07/25 07:50:22;;;;;;;4.90;2.00;;;25.00;82.60;;;;;;5036364;28;20053;-66
2023/07/25 07:52:48;;;;;;;6.28;2.17;;;25.00;83.00;;;;;;5045337;28;20045;-65
2023/07/25 07:55:14;;;;;;;5.57;2.00;;;25.00;83.00;;;;;;5032470;28;20037;-61
2023/07/25 07:57:44;;;;;;;5.80;1.83;;;25.20;83.00;;;;;;5032862;28;20045;-63
2023/07/25 08:00:11;;;;;;;5.45;1.98;;;24.80;82.80;;;;;;5050278;28;20048;-64
2023/07/25 08:02:37;;;;;;;6.18;2.00;;;25.10;82.40;;;;;;5048714;28;20056;-60
2023/07/25 08:05:03;;;;;;;7.10;2.10;;;25.20;82.50;;;;;;5051734;28;20037;-73
2023/07/25 08:07:29;;;;;;;16.45;1.88;;;24.80;81.90;;;;;;5038451;28;20122;-72
2023/07/25 08:09:55;;;;;;;4.43;1.58;;;24.70;81.90;;;;;;5048196;28;20391;-63
2023/07/25 08:12:22;;;;;;;6.68;2.10;;;24.80;81.90;;;;;;5045405;28;20509;-72
2023/07/25 08:14:49;;;;;;;5.20;1.60;;;25.30;82.30;;;;;;5045327;28;20120;-76
2023/07/25 08:17:15;;;;;;;5.00;2.00;;;25.10;80.70;;;;;;5035851;28;20050;-69
2023/07/25 08:19:41;;;;;;;8.43;2.40;;;25.10;81.50;;;;;;5036112;28;20037;-62
2023/07/25 08:22:07;;;;;;;5.60;1.83;;;25.10;81.40;;;;;;5034649;28;20640;-66
2023/07/25 08:24:33;;;;;;;6.55;2.30;;;25.10;81.20;;;;;;5051932;28;20057;-68
2023/07/25 08:26:59;;;;;;;8.32;1.95;;;25.10;81.00;;;;;;5053356;28;20048;-61
2023/07/25 08:29:25;;;;;;;9.07;2.30;;;25.30;81.20;;;;;;5053051;28;20047;-61
2023/07/25 08:31:51;;;;;;;7.72;2.35;;;25.30;81.10;;;;;;5048437;28;20147;-67
2023/07/25 08:34:17;;;;;;;7.00;2.20;;;25.40;80.90;;;;;;5035828;28;20623;-62
2023/07/25 08:36:42;;;;;;;7.40;2.65;;;25.30;80.70;;;;;;5035645;28;20052;-64
2023/07/25 08:39:08;;;;;;;11.35;2.30;;;25.20;80.50;;;;;;5037614;28;20046;-65
2023/07/25 08:41:40;;;;;;;7.63;2.65;;;25.30;80.30;;;;;;5039405;28;20048;-62
2023/07/25 08:44:08;;;;;;;7.15;2.13;;;25.30;80.40;;;;;;5038601;28;20379;-68
2023/07/25 08:46:33;;;;;;;6.13;2.20;;;25.40;80.30;;;;;;5055535;28;20110;-61
2023/07/25 08:49:03;;;;;;;8.55;2.55;;;25.30;79.70;;;;;;5055129;28;20040;-68
2023/07/25 08:51:30;;;;;;;7.53;2.30;;;25.50;79.90;;;;;;5048880;28;20084;-73
2023/07/25 08:54:11;;;;;;;5.80;2.22;;;25.50;79.90;;;;;;5051133;28;20040;-63
2023/07/25 08:56:38;;;;;;;7.35;2.30;;;25.10;78.20;;;;;;5033977;28;20115;-60
2023/07/25 08:59:04;;;;;;;8.35;2.58;;;25.20;79.90;;;;;;5035058;28;20169;-70
2023/07/25 09:01:30;;;;;;;6.80;2.42;;;25.40;79.60;;;;;;5037273;28;20140;-59
2023/07/25 09:03:56;;;;;;;7.15;2.53;;;25.40;79.70;;;;;;5045859;28;20483;-65
2023/07/25 09:06:23;;;;;;;6.03;1.90;;;25.40;79.20;;;;;;5036953;28;20043;-67
2023/07/25 09:08:49;;;;;;;6.32;2.03;;;25.40;79.30;;;;;;5078151;28;20056;-60
2023/07/25 09:11:16;;;;;;;8.27;2.17;;;25.40;79.50;;;;;;5043766;28;20064;-59
2023/07/25 09:13:42;;;;;;;7.20;2.30;;;25.30;79.80;;;;;;5050495;28;20039;-60
2023/07/25 09:16:08;;;;;;;8.32;2.50;;;25.20;79.60;;;;;;5043323;28;20037;-62
2023/07/25 09:18:34;;;;;;;6.43;2.00;;;25.10;82.10;;;;;;5041635;28;20400;-64
2023/07/25 09:20:59;;;;;;;8.75;1.98;;;25.10;79.40;;;;;;5051232;28;20045;-61
2023/07/25 09:23:25;;;;;;;14.88;2.90;;;25.30;79.60;;;;;;5043387;28;20056;-69
2023/07/25 09:25:53;;;;;;;8.88;2.45;;;25.30;79.20;;;;;;5041257;28;20111;-60
2023/07/25 09:28:19;;;;;;;9.98;2.28;;;25.40;79.70;;;;;;5071675;28;20041;-60
2023/07/25 09:30:48;;;;;;;9.68;2.75;;;25.20;79.30;;;;;;5044076;28;20059;-67
2023/07/25 09:33:26;;;;;;;12.55;2.60;;;25.00;79.20;;;;;;5040795;28;20099;-62
2023/07/25 09:35:52;;;;;;;9.80;2.03;;;25.20;79.60;;;;;;5037629;28;20045;-67
2023/07/25 09:38:18;;;;;;;6.78;2.20;;;25.00;79.00;;;;;;5037989;28;20048;-70
2023/07/25 09:40:47;;;;;;;17.40;1.98;;;25.20;81.90;;;;;;5040185;28;20492;-60
2023/07/25 09:43:23;;;;;;;6.72;2.00;;;25.30;79.30;;;;;;5039736;28;20033;-63
2023/07/25 09:45:49;;;;;;;6.32;2.00;;;25.30;79.20;;;;;;5042399;28;20364;-62
2023/07/25 09:48:15;;;;;;;8.27;1.98;;;25.40;78.70;;;;;;5038061;28;20056;-61
2023/07/25 09:50:43;;;;;;;8.68;1.50;;;25.30;78.90;;;;;;5038560;28;20045;-60
2023/07/25 09:53:11;;;;;;;7.63;1.75;;;24.80;78.70;;;;;;5044692;28;20036;-60
2023/07/25 09:55:37;;;;;;;6.65;1.88;;;25.30;79.10;;;;;;5054080;28;20087;-72
2023/07/25 09:58:04;;;;;;;8.23;1.83;;;24.90;78.60;;;;;;5052185;28;20077;-60
2023/07/25 10:00:30;;;;;;;9.43;2.00;;;25.20;79.00;;;;;;5051457;28;20407;-64
2023/07/25 10:02:56;;;;;;;8.88;1.92;;;25.10;81.40;;;;;;5050013;28;20120;-62
2023/07/25 10:05:22;;;;;;;7.20;1.90;;;24.90;78.70;;;;;;5047428;28;20487;-70
2023/07/25 10:07:49;;;;;;;6.70;1.80;;;25.10;78.50;;;;;;5047152;28;20170;-63
2023/07/25 10:10:17;;;;;;;5.25;1.52;;;24.90;78.50;;;;;;5042560;28;20056;-70
2023/07/25 10:12:43;;;;;;;4.47;1.50;;;25.00;78.60;;;;;;5041413;28;20176;-67
2023/07/25 10:15:09;;;;;;;4.70;1.50;;;25.00;78.20;;;;;;5045584;28;20111;-67
2023/07/25 10:17:35;;;;;;;5.88;1.42;;;25.00;78.40;;;;;;5049672;28;20425;-71
2023/07/25 10:20:01;;;;;;;4.30;1.52;;;25.10;78.50;;;;;;5049666;28;20056;-70
2023/07/25 10:22:38;;;;;;;5.03;1.50;;;24.60;80.90;;;;;;5043739;28;20053;-63
2023/07/25 10:25:10;;;;;;;6.35;1.52;;;25.00;78.60;;;;;;5046246;28;20194;-66
2023/07/25 10:27:37;;;;;;;5.53;1.48;;;24.80;78.70;;;;;;5042037;28;20068;-67
2023/07/25 10:30:03;;;;;;;4.38;1.40;;;24.90;77.90;;;;;;5050439;28;20511;-62
2023/07/25 10:32:46;;;;;;;2.22;1.30;;;24.70;78.10;;;;;;5033543;28;20653;-72
2023/07/25 10:35:11;;;;;;;5.07;1.50;;;24.60;78.30;;;;;;5048874;28;20048;-66
2023/07/25 10:37:44;;;;;;;9.35;1.75;;;24.70;78.10;;;;;;5046278;28;20175;-67
2023/07/25 10:40:14;;;;;;;7.97;1.88;;;24.80;78.90;;;;;;5040870;28;20056;-63
2023/07/25 10:42:45;;;;;;;6.32;1.65;;;24.90;79.00;;;;;;5037631;28;20368;-63
2023/07/25 10:45:32;;;;;;;5.00;1.70;;;24.50;77.40;;;;;;5051133;28;20041;-72
2023/07/25 10:47:59;;;;;;;4.53;1.60;;;24.80;77.70;;;;;;5051427;28;20055;-70
2023/07/25 10:50:44;;;;;;;4.82;1.40;;;24.60;81.60;;;;;;5041281;28;20062;-69
2023/07/25 10:53:24;;;;;;;5.55;1.50;;;24.60;81.90;;;;;;5030530;28;20053;-62
2023/07/25 10:56:07;;;;;;;5.65;1.58;;;24.40;78.00;;;;;;5051206;28;20384;-65
2023/07/25 10:58:38;;;;;;;4.82;1.70;;;24.50;78.10;;;;;;5043498;28;20099;-64
2023/07/25 11:01:04;;;;;;;4.95;1.50;;;24.60;79.20;;;;;;5042673;28;20045;-61
2023/07/25 11:03:34;;;;;;;3.38;1.58;;;24.70;79.20;;;;;;5049285;28;20461;-68
2023/07/25 11:06:12;;;;;;;5.93;1.50;;;24.90;79.40;;;;;;5043087;28;20067;-72
2023/07/25 11:08:41;;;;;;;3.63;1.17;;;24.80;78.10;;;;;;5044961;28;20415;-71
2023/07/25 11:11:11;;;;;;;4.25;1.60;;;24.60;79.30;;;;;;5047713;28;20402;-61
2023/07/25 11:13:41;;;;;;;6.40;1.85;;;24.40;82.10;;;;;;5036574;28;22084;-73
2023/07/25 11:16:09;;;;;;;4.95;1.70;;;24.60;79.50;;;;;;5049156;28;20080;-70
2023/07/25 11:18:37;;;;;;;4.68;1.52;;;24.60;79.50;;;;;;5050319;28;20099;-69
2023/07/25 11:21:05;;;;;;;5.18;1.88;;;24.50;79.60;;;;;;5049846;28;20048;-60
2023/07/25 11:23:34;;;;;;;5.07;1.40;;;24.80;79.70;;;;;;5042587;28;20056;-67
2023/07/25 11:26:02;;;;;;;3.97;1.73;;;24.60;82.40;;;;;;5047981;28;20049;-73
2023/07/25 11:28:28;;;;;;;4.22;1.50;;;24.50;79.70;;;;;;5038022;28;20038;-61
2023/07/25 11:30:54;;;;;;;4.68;1.50;;;24.80;82.90;;;;;;5054866;28;20430;-60
2023/07/25 11:33:20;;;;;;;4.70;1.52;;;24.60;79.40;;;;;;5052488;28;20046;-69
2023/07/25 11:35:51;;;;;;;2.88;1.27;;;24.70;79.40;;;;;;5057439;28;20127;-71
2023/07/25 11:38:18;;;;;;;4.55;1.63;;;24.80;79.90;;;;;;5043718;28;20106;-68
2023/07/25 11:40:53;;;;;;;5.95;1.77;;;24.60;82.50;;;;;;5045260;28;20112;-65
2023/07/25 11:43:19;;;;;;;4.10;1.50;;;24.60;82.40;;;;;;5042994;28;21564;-72
2023/07/25 11:45:45;;;;;;;4.63;1.80;;;24.40;79.40;;;;;;5039765;28;20049;-67
2023/07/25 11:48:14;;;;;;;5.78;1.55;;;24.60;79.30;;;;;;5045261;28;20045;-70
2023/07/25 11:50:42;;;;;;;5.90;1.80;;;24.20;79.40;;;;;;5051058;28;20517;-62
2023/07/25 11:53:08;;;;;;;5.65;1.67;;;24.50;79.20;;;;;;5051557;28;20053;-60
2023/07/25 11:55:34;;;;;;;4.57;1.60;;;24.60;79.60;;;;;;5052167;28;20041;-71
2023/07/25 11:58:03;;;;;;;5.05;1.60;;;24.40;78.60;;;;;;5048053;28;20106;-65
2023/07/25 12:00:42;;;;;;;6.05;1.63;;;24.60;79.10;;;;;;5052864;28;20045;-64
2023/07/25 12:03:24;;;;;;;5.03;1.70;;;24.60;78.00;;;;;;5043748;28;20044;-65
2023/07/25 12:05:53;;;;;;;10.77;1.65;;;24.80;82.40;;;;;;5044570;28;20056;-62
2023/07/25 12:08:32;;;;;;;8.18;1.88;;;24.70;79.40;;;;;;5041582;28;20091;-71
2023/07/25 12:11:07;;;;;;;3.35;1.30;;;24.60;79.30;;;;;;5046101;28;20057;-70
2023/07/25 12:13:41;;;;;;;6.78;1.60;;;24.80;79.40;;;;;;5053668;28;20041;-67
2023/07/25 12:16:07;;;;;;;4.75;1.45;;;24.70;79.30;;;;;;5053650;28;20082;-64
2023/07/25 12:18:35;;;;;;;5.18;1.60;;;24.70;78.80;;;;;;5052593;28;20119;-61
2023/07/25 12:21:02;;;;;;;4.10;1.70;;;24.70;82.00;;;;;;5037985;28;20033;-64
2023/07/25 12:23:40;;;;;;;6.38;1.50;;;24.60;79.20;;;;;;5050216;28;20068;-60
2023/07/25 12:26:07;;;;;;;6.00;1.48;;;24.70;79.20;;;;;;5047430;28;20044;-61
2023/07/25 12:28:40;;;;;;;4.18;1.60;;;24.60;78.80;;;;;;5050087;28;20174;-68
2023/07/25 12:31:05;;;;;;;;;;;24.60;79.40;;;;;;5046816;28;20041;-64
2023/07/25 12:33:31;;;;;;;5.28;1.30;;;24.50;78.90;;;;;;5085372;28;19921;-63
2023/07/25 12:35:57;;;;;;;3.78;1.45;;;24.60;78.90;;;;;;5052876;28;20044;-62
2023/07/25 12:38:23;;;;;;;3.78;1.35;;;24.60;78.90;;;;;;5045615;28;20049;-63
2023/07/25 12:40:49;;;;;;;4.18;1.40;;;24.60;78.80;;;;;;5043326;28;20045;-60
2023/07/25 12:43:15;;;;;;;6.03;1.48;;;24.60;78.60;;;;;;5038192;28;20057;-60
2023/07/25 12:45:42;;;;;;;4.30;1.40;;;24.50;78.80;;;;;;5044782;28;20041;-63
2023/07/25 12:48:08;;;;;;;3.72;1.33;;;24.50;78.50;;;;;;5040680;28;20140;-61